EYSA/SQQ METAR and TAF weather

Enter ICAO airport designator
Station Type Date Time Source
EYSA METAR 2021/01/17 19:20 UTC NOAA

EYSA 171920Z 25002KT 2600 BR NSC M22/M24 Q1021 R14L/29//95 R14R/29//95 YLO NOSIG


Station Type Date Time Source
EYSA Decoded METAR 2021/01/17 19:20 UTC NOAA

Siauliai Intl./Mil., Lithuania (EYSA) 55-53-38N 023-23-42E
Jan 17, 2021 - 02:20 PM EST / 2021.01.17 1920 UTC
Wind: from the WSW (250 degrees) at 2 MPH (2 KT):0
Visibility: 1 mile(s):0
Weather: mist
Temperature: -7 F (-22 C)
Dew Point: -11 F (-24 C)
Relative Humidity: 83%
Pressure (altimeter): 30.15 in. Hg (1021 hPa)
ob: EYSA 171920Z 25002KT 2600 BR NSC M22/M24 Q1021 R14L/29//95 R14R/29//95 YLO NOSIG
cycle: 19

Station Type Date Time Source
EYSA TAF 2020/12/31 18:21 UTC NOAA

TAF TAF EYSA 311704Z 3118/0118 VRB04KT 1500 BR OVC002
TEMPO 3118/0102 0350 FZFG

Example: see airport list